VRG1345 SBPJ-SBBR
Flight info
| Callsign | VRG1345 |
|---|---|
| Flight time | 1h 0m |
| Altitude | 37000 |
| Route | EGDOD UZ26 PADIL |
| Aircraft | B737/M-SDE2E3FGHIRWXY/LB1 |
Departure
| Time | 2026-04-24 23:07 |
|---|---|
| Airport | Brigadeiro Lysias Rodrigues Airport (SBPJ) |
Arrival
| Time | 2026-04-25 00:08 |
|---|---|
| Airport | Presidente Juscelino Kubitschek International Airport (SBBR) |
| Time | Latitude | Longitude | Altitude | Speed | Heading |
|---|---|---|---|---|---|
| 2026-04-24 22:55 | -10.29421 | -48.35729 | 760 ft | 0 kts | 211° |
| 2026-04-24 23:01 | -10.29410 | -48.35722 | 756 ft | 3 kts | 211° |
| 2026-04-24 23:01 | -10.29400 | -48.35716 | 757 ft | 0 kts | 166° |
| 2026-04-24 23:03 | -10.29411 | -48.35713 | 748 ft | 6 kts | 164° |
| 2026-04-24 23:03 | -10.29426 | -48.35703 | 738 ft | 7 kts | 135° |
| 2026-04-24 23:04 | -10.29450 | -48.35644 | 762 ft | 7 kts | 83° |
| 2026-04-24 23:04 | -10.29392 | -48.35593 | 763 ft | 18 kts | 32° |
| 2026-04-24 23:04 | -10.29330 | -48.35557 | 763 ft | 3 kts | 27° |
| 2026-04-24 23:04 | -10.29264 | -48.35541 | 762 ft | 13 kts | 342° |
| 2026-04-24 23:05 | -10.29185 | -48.35655 | 755 ft | 27 kts | 298° |
| 2026-04-24 23:05 | -10.29062 | -48.35862 | 753 ft | 40 kts | 304° |
| 2026-04-24 23:05 | -10.28903 | -48.36115 | 747 ft | 42 kts | 305° |
| 2026-04-24 23:05 | -10.28738 | -48.36351 | 742 ft | 40 kts | 306° |
| 2026-04-24 23:06 | -10.28601 | -48.36580 | 737 ft | 35 kts | 273° |
| 2026-04-24 23:06 | -10.28566 | -48.36650 | 735 ft | 6 kts | 351° |
| 2026-04-24 23:06 | -10.28549 | -48.36633 | 735 ft | 7 kts | 75° |
| 2026-04-24 23:06 | -10.28559 | -48.36601 | 736 ft | 7 kts | 121° |
| 2026-04-24 23:07 | -10.28692 | -48.36392 | 742 ft | 76 kts | 124° |
| 2026-04-24 23:07 | -10.29147 | -48.35720 | 772 ft | 148 kts | 125° |
| 2026-04-24 23:07 | -10.29784 | -48.34807 | 1410 ft | 166 kts | 127° |
| 2026-04-24 23:07 | -10.30513 | -48.33783 | 2103 ft | 190 kts | 126° |
| 2026-04-24 23:08 | -10.31289 | -48.32685 | 3073 ft | 197 kts | 122° |
| 2026-04-24 23:08 | -10.32084 | -48.31404 | 3425 ft | 232 kts | 121° |
| 2026-04-24 23:08 | -10.33010 | -48.29923 | 3819 ft | 261 kts | 122° |
| 2026-04-24 23:08 | -10.34005 | -48.28361 | 4879 ft | 264 kts | 122° |
| 2026-04-24 23:09 | -10.35105 | -48.26871 | 5984 ft | 266 kts | 138° |
| 2026-04-24 23:09 | -10.36748 | -48.25984 | 7010 ft | 272 kts | 163° |
| 2026-04-24 23:09 | -10.38624 | -48.25745 | 7943 ft | 279 kts | 175° |
| 2026-04-24 23:09 | -10.40590 | -48.25686 | 8861 ft | 285 kts | 176° |
| 2026-04-24 23:10 | -10.42598 | -48.25649 | 9808 ft | 291 kts | 176° |
| 2026-04-24 23:10 | -10.44648 | -48.25601 | 10524 ft | 303 kts | 176° |
| 2026-04-24 23:10 | -10.46854 | -48.25533 | 10832 ft | 328 kts | 175° |
| 2026-04-24 23:10 | -10.49156 | -48.25453 | 11508 ft | 337 kts | 176° |
| 2026-04-24 23:11 | -10.51506 | -48.25371 | 12346 ft | 340 kts | 176° |
| 2026-04-24 23:11 | -10.53872 | -48.25580 | 13136 ft | 348 kts | 195° |
| 2026-04-24 23:11 | -10.56238 | -48.26255 | 13950 ft | 350 kts | 190° |
| 2026-04-24 23:11 | -10.58671 | -48.26663 | 14651 ft | 355 kts | 186° |
| 2026-04-24 23:12 | -10.61145 | -48.26979 | 15342 ft | 359 kts | 186° |
| 2026-04-24 23:12 | -10.63639 | -48.27289 | 16045 ft | 364 kts | 186° |
| 2026-04-24 23:12 | -10.66169 | -48.27621 | 16741 ft | 369 kts | 187° |
| 2026-04-24 23:12 | -10.68709 | -48.27974 | 17440 ft | 373 kts | 187° |
| 2026-04-24 23:13 | -10.71310 | -48.28353 | 18139 ft | 377 kts | 187° |
| 2026-04-24 23:13 | -10.73916 | -48.28741 | 18720 ft | 382 kts | 187° |
| 2026-04-24 23:13 | -10.76562 | -48.29141 | 19316 ft | 385 kts | 187° |
| 2026-04-24 23:13 | -10.79223 | -48.29546 | 19913 ft | 388 kts | 187° |
| 2026-04-24 23:14 | -10.80990 | -48.29815 | 20290 ft | 391 kts | 187° |
| 2026-04-24 23:14 | -10.83706 | -48.30228 | 20854 ft | 395 kts | 187° |
| 2026-04-24 23:14 | -10.86437 | -48.30644 | 21410 ft | 398 kts | 186° |
| 2026-04-24 23:14 | -10.89194 | -48.31064 | 21955 ft | 402 kts | 186° |
| 2026-04-24 23:15 | -10.91974 | -48.31486 | 22491 ft | 406 kts | 186° |
| 2026-04-24 23:15 | -10.94756 | -48.31910 | 23315 ft | 399 kts | 186° |
| 2026-04-24 23:15 | -10.97462 | -48.32137 | 24274 ft | 383 kts | 175° |
| 2026-04-24 23:15 | -11.00139 | -48.32006 | 24992 ft | 379 kts | 172° |
| 2026-04-24 23:16 | -11.02777 | -48.31787 | 25488 ft | 383 kts | 171° |
| 2026-04-24 23:16 | -11.05445 | -48.31551 | 25979 ft | 387 kts | 171° |
| 2026-04-24 23:16 | -11.08145 | -48.31328 | 26493 ft | 389 kts | 172° |
| 2026-04-24 23:16 | -11.10855 | -48.31123 | 27032 ft | 392 kts | 172° |
| 2026-04-24 23:17 | -11.13587 | -48.30931 | 27545 ft | 395 kts | 172° |
| 2026-04-24 23:17 | -11.16348 | -48.30744 | 28054 ft | 398 kts | 172° |
| 2026-04-24 23:17 | -11.19118 | -48.30561 | 28552 ft | 401 kts | 172° |
| 2026-04-24 23:17 | -11.21913 | -48.30376 | 29046 ft | 404 kts | 172° |
| 2026-04-24 23:18 | -11.24698 | -48.30192 | 29531 ft | 406 kts | 172° |
| 2026-04-24 23:18 | -11.27528 | -48.30004 | 30007 ft | 409 kts | 172° |
| 2026-04-24 23:18 | -11.30384 | -48.29826 | 30412 ft | 413 kts | 173° |
| 2026-04-24 23:18 | -11.33260 | -48.29720 | 30814 ft | 416 kts | 174° |
| 2026-04-24 23:19 | -11.36166 | -48.29651 | 31199 ft | 419 kts | 174° |
| 2026-04-24 23:19 | -11.39088 | -48.29590 | 31571 ft | 422 kts | 174° |
| 2026-04-24 23:19 | -11.42040 | -48.29526 | 31961 ft | 424 kts | 174° |
| 2026-04-24 23:19 | -11.45005 | -48.29454 | 32327 ft | 426 kts | 174° |
| 2026-04-24 23:20 | -11.47984 | -48.29377 | 32685 ft | 429 kts | 174° |
| 2026-04-24 23:20 | -11.50980 | -48.29295 | 33025 ft | 432 kts | 174° |
| 2026-04-24 23:20 | -11.53991 | -48.29212 | 33361 ft | 434 kts | 174° |
| 2026-04-24 23:20 | -11.57023 | -48.29128 | 33696 ft | 436 kts | 174° |
| 2026-04-24 23:21 | -11.60075 | -48.29043 | 33991 ft | 439 kts | 174° |
| 2026-04-24 23:21 | -11.63094 | -48.28960 | 34242 ft | 441 kts | 174° |
| 2026-04-24 23:21 | -11.66177 | -48.28875 | 34499 ft | 443 kts | 174° |
| 2026-04-24 23:21 | -11.69263 | -48.28789 | 34753 ft | 445 kts | 174° |
| 2026-04-24 23:22 | -11.72373 | -48.28705 | 34998 ft | 447 kts | 175° |
| 2026-04-24 23:22 | -11.75486 | -48.28622 | 35227 ft | 449 kts | 175° |
| 2026-04-24 23:22 | -11.78620 | -48.28539 | 35457 ft | 450 kts | 175° |
| 2026-04-24 23:22 | -11.81754 | -48.28456 | 35681 ft | 452 kts | 175° |
| 2026-04-24 23:23 | -11.84908 | -48.28373 | 35902 ft | 453 kts | 175° |
| 2026-04-24 23:23 | -11.88067 | -48.28290 | 36132 ft | 454 kts | 175° |
| 2026-04-24 23:23 | -11.91232 | -48.28206 | 36357 ft | 455 kts | 175° |
| 2026-04-24 23:23 | -11.94406 | -48.28121 | 36552 ft | 457 kts | 175° |
| 2026-04-24 23:24 | -11.97557 | -48.28038 | 36735 ft | 458 kts | 175° |
| 2026-04-24 23:24 | -12.00752 | -48.27952 | 36937 ft | 459 kts | 175° |
| 2026-04-24 23:24 | -12.03936 | -48.27869 | 36924 ft | 453 kts | 175° |
| 2026-04-24 23:25 | -12.10165 | -48.27705 | 36942 ft | 444 kts | 175° |
| 2026-04-24 23:25 | -12.16327 | -48.27540 | 36956 ft | 442 kts | 175° |
| 2026-04-24 23:26 | -12.22472 | -48.27375 | 36953 ft | 441 kts | 175° |
| 2026-04-24 23:26 | -12.28568 | -48.27212 | 36955 ft | 440 kts | 175° |
| 2026-04-24 23:27 | -12.34678 | -48.27049 | 36957 ft | 439 kts | 175° |
| 2026-04-24 23:27 | -12.40832 | -48.26885 | 36959 ft | 439 kts | 175° |
| 2026-04-24 23:28 | -12.46911 | -48.27083 | 36963 ft | 443 kts | 184° |
| 2026-04-24 23:28 | -12.53032 | -48.27933 | 36954 ft | 444 kts | 185° |
| 2026-04-24 23:29 | -12.59168 | -48.28833 | 36960 ft | 445 kts | 185° |
| 2026-04-24 23:29 | -12.65326 | -48.29704 | 36963 ft | 446 kts | 185° |
| 2026-04-24 23:30 | -12.71485 | -48.30552 | 36962 ft | 447 kts | 185° |
| 2026-04-24 23:30 | -12.77626 | -48.31391 | 36962 ft | 448 kts | 185° |
| 2026-04-24 23:31 | -12.83816 | -48.32236 | 36964 ft | 449 kts | 185° |
| 2026-04-24 23:31 | -12.90010 | -48.33082 | 36967 ft | 449 kts | 185° |
| 2026-04-24 23:32 | -12.96222 | -48.33932 | 36965 ft | 450 kts | 185° |
| 2026-04-24 23:32 | -13.02434 | -48.34783 | 36971 ft | 450 kts | 185° |
| 2026-04-24 23:33 | -13.08649 | -48.35635 | 36970 ft | 450 kts | 185° |
| 2026-04-24 23:33 | -13.14829 | -48.36482 | 36970 ft | 450 kts | 185° |
| 2026-04-24 23:34 | -13.21031 | -48.37333 | 36974 ft | 450 kts | 185° |
| 2026-04-24 23:34 | -13.27250 | -48.38186 | 36973 ft | 450 kts | 184° |
| 2026-04-24 23:35 | -13.33449 | -48.39037 | 36974 ft | 449 kts | 184° |
| 2026-04-24 23:35 | -13.39654 | -48.39889 | 36973 ft | 449 kts | 184° |
| 2026-04-24 23:36 | -13.45836 | -48.40739 | 36978 ft | 448 kts | 184° |
| 2026-04-24 23:36 | -13.51984 | -48.41584 | 36983 ft | 448 kts | 184° |
| 2026-04-24 23:37 | -13.58201 | -48.42440 | 36980 ft | 447 kts | 184° |
| 2026-04-24 23:37 | -13.67424 | -48.43709 | 36979 ft | 447 kts | 184° |
| 2026-04-24 23:38 | -13.73587 | -48.44558 | 36984 ft | 446 kts | 184° |
| 2026-04-24 23:38 | -13.79740 | -48.45406 | 36988 ft | 446 kts | 184° |
| 2026-04-24 23:39 | -13.85907 | -48.46257 | 36988 ft | 447 kts | 184° |
| 2026-04-24 23:39 | -13.92066 | -48.47106 | 36983 ft | 447 kts | 184° |
| 2026-04-24 23:40 | -13.98224 | -48.47956 | 36980 ft | 446 kts | 184° |
| 2026-04-24 23:40 | -14.04396 | -48.48808 | 36593 ft | 451 kts | 185° |
| 2026-04-24 23:41 | -14.07490 | -48.49236 | 36248 ft | 444 kts | 185° |
| 2026-04-24 23:41 | -14.10515 | -48.49656 | 35773 ft | 434 kts | 185° |
| 2026-04-24 23:41 | -14.13470 | -48.50067 | 35351 ft | 425 kts | 185° |
| 2026-04-24 23:41 | -14.16373 | -48.50470 | 34930 ft | 416 kts | 185° |
| 2026-04-24 23:42 | -14.19263 | -48.50871 | 34516 ft | 408 kts | 185° |
| 2026-04-24 23:42 | -14.22046 | -48.51256 | 34122 ft | 401 kts | 185° |
| 2026-04-24 23:42 | -14.24804 | -48.51637 | 33666 ft | 396 kts | 185° |
| 2026-04-24 23:42 | -14.27500 | -48.52009 | 33272 ft | 396 kts | 185° |
| 2026-04-24 23:43 | -14.30365 | -48.52403 | 32864 ft | 407 kts | 185° |
| 2026-04-24 23:43 | -14.33103 | -48.52778 | 32494 ft | 418 kts | 185° |
| 2026-04-24 23:43 | -14.36153 | -48.53199 | 31991 ft | 415 kts | 185° |
| 2026-04-24 23:43 | -14.38105 | -48.53471 | 31712 ft | 408 kts | 185° |
| 2026-04-24 23:44 | -14.40888 | -48.53859 | 31305 ft | 399 kts | 185° |
| 2026-04-24 23:44 | -14.43610 | -48.54240 | 30922 ft | 391 kts | 184° |
| 2026-04-24 23:44 | -14.46288 | -48.54613 | 30545 ft | 383 kts | 184° |
| 2026-04-24 23:44 | -14.48901 | -48.54976 | 30176 ft | 376 kts | 184° |
| 2026-04-24 23:45 | -14.51480 | -48.55334 | 29769 ft | 371 kts | 184° |
| 2026-04-24 23:45 | -14.54030 | -48.55687 | 29361 ft | 369 kts | 184° |
| 2026-04-24 23:45 | -14.56610 | -48.56042 | 28976 ft | 379 kts | 184° |
| 2026-04-24 23:45 | -14.59278 | -48.56408 | 28562 ft | 392 kts | 185° |
| 2026-04-24 23:46 | -14.61969 | -48.56780 | 28100 ft | 387 kts | 185° |
| 2026-04-24 23:46 | -14.64609 | -48.57149 | 27663 ft | 378 kts | 185° |
| 2026-04-24 23:46 | -14.67213 | -48.57514 | 27248 ft | 369 kts | 185° |
| 2026-04-24 23:46 | -14.69700 | -48.57862 | 26854 ft | 361 kts | 185° |
| 2026-04-24 23:47 | -14.72174 | -48.58206 | 26467 ft | 355 kts | 185° |
| 2026-04-24 23:47 | -14.74606 | -48.58544 | 26095 ft | 352 kts | 185° |
| 2026-04-24 23:47 | -14.77037 | -48.58881 | 25721 ft | 353 kts | 185° |
| 2026-04-24 23:47 | -14.79513 | -48.59222 | 25323 ft | 368 kts | 185° |
| 2026-04-24 23:48 | -14.82086 | -48.59577 | 24892 ft | 374 kts | 185° |
| 2026-04-24 23:48 | -14.84653 | -48.59935 | 24453 ft | 369 kts | 185° |
| 2026-04-24 23:48 | -14.87171 | -48.60288 | 24034 ft | 362 kts | 185° |
| 2026-04-24 23:48 | -14.89642 | -48.60634 | 23623 ft | 355 kts | 185° |
| 2026-04-24 23:49 | -14.92069 | -48.60972 | 23159 ft | 348 kts | 185° |
| 2026-04-24 23:49 | -14.94446 | -48.61303 | 22742 ft | 341 kts | 185° |
| 2026-04-24 23:49 | -14.96779 | -48.61628 | 22352 ft | 336 kts | 185° |
| 2026-04-24 23:49 | -14.99087 | -48.61949 | 21968 ft | 335 kts | 185° |
| 2026-04-24 23:50 | -15.01415 | -48.62219 | 21586 ft | 339 kts | 176° |
| 2026-04-24 23:50 | -15.03749 | -48.61792 | 21134 ft | 345 kts | 155° |
| 2026-04-24 23:50 | -15.05919 | -48.60761 | 20689 ft | 341 kts | 152° |
| 2026-04-24 23:50 | -15.08013 | -48.59663 | 20263 ft | 333 kts | 150° |
| 2026-04-24 23:51 | -15.10041 | -48.58578 | 19877 ft | 325 kts | 150° |
| 2026-04-24 23:51 | -15.12029 | -48.57517 | 19495 ft | 318 kts | 151° |
| 2026-04-24 23:51 | -15.13986 | -48.56479 | 19108 ft | 314 kts | 151° |
| 2026-04-24 23:51 | -15.15925 | -48.55458 | 18741 ft | 313 kts | 151° |
| 2026-04-24 23:52 | -15.17876 | -48.54436 | 18355 ft | 316 kts | 152° |
| 2026-04-24 23:52 | -15.19878 | -48.53390 | 17921 ft | 326 kts | 152° |
| 2026-04-24 23:52 | -15.21914 | -48.52329 | 17502 ft | 328 kts | 152° |
| 2026-04-24 23:52 | -15.23936 | -48.51277 | 17078 ft | 321 kts | 152° |
| 2026-04-24 23:53 | -15.25905 | -48.50255 | 16680 ft | 313 kts | 152° |
| 2026-04-24 23:53 | -15.27771 | -48.49285 | 16305 ft | 305 kts | 152° |
| 2026-04-24 23:53 | -15.29659 | -48.48305 | 15933 ft | 299 kts | 153° |
| 2026-04-24 23:53 | -15.31493 | -48.47351 | 15578 ft | 298 kts | 153° |
| 2026-04-24 23:54 | -15.33379 | -48.46371 | 15226 ft | 302 kts | 153° |
| 2026-04-24 23:54 | -15.35268 | -48.45388 | 14837 ft | 312 kts | 153° |
| 2026-04-24 23:54 | -15.37229 | -48.44369 | 14433 ft | 316 kts | 153° |
| 2026-04-24 23:54 | -15.39174 | -48.43357 | 14022 ft | 309 kts | 153° |
| 2026-04-24 23:55 | -15.41068 | -48.42372 | 13614 ft | 302 kts | 153° |
| 2026-04-24 23:55 | -15.42926 | -48.41406 | 13210 ft | 295 kts | 153° |
| 2026-04-24 23:55 | -15.44733 | -48.40465 | 12832 ft | 287 kts | 153° |
| 2026-04-24 23:55 | -15.46510 | -48.39541 | 12470 ft | 284 kts | 153° |
| 2026-04-24 23:56 | -15.48280 | -48.38619 | 12126 ft | 285 kts | 153° |
| 2026-04-24 23:56 | -15.50074 | -48.37685 | 11782 ft | 293 kts | 153° |
| 2026-04-24 23:56 | -15.51914 | -48.36727 | 11404 ft | 298 kts | 153° |
| 2026-04-24 23:56 | -15.53753 | -48.35769 | 11011 ft | 292 kts | 153° |
| 2026-04-24 23:57 | -15.55538 | -48.34839 | 10633 ft | 284 kts | 153° |
| 2026-04-24 23:57 | -15.57286 | -48.33929 | 10266 ft | 277 kts | 153° |
| 2026-04-24 23:57 | -15.58968 | -48.33053 | 10103 ft | 263 kts | 153° |
| 2026-04-24 23:57 | -15.60590 | -48.32214 | 9905 ft | 260 kts | 153° |
| 2026-04-24 23:58 | -15.62252 | -48.31359 | 9777 ft | 273 kts | 153° |
| 2026-04-24 23:58 | -15.63979 | -48.30471 | 9591 ft | 280 kts | 153° |
| 2026-04-24 23:58 | -15.65747 | -48.29562 | 9406 ft | 283 kts | 153° |
| 2026-04-24 23:58 | -15.67505 | -48.28658 | 9218 ft | 280 kts | 153° |
| 2026-04-24 23:59 | -15.69246 | -48.27762 | 9044 ft | 278 kts | 153° |
| 2026-04-24 23:59 | -15.70948 | -48.26886 | 8858 ft | 266 kts | 153° |
| 2026-04-24 23:59 | -15.72546 | -48.26063 | 8692 ft | 252 kts | 153° |
| 2026-04-24 23:59 | -15.74090 | -48.25268 | 8525 ft | 238 kts | 152° |
| 2026-04-25 00:00 | -15.75537 | -48.24523 | 8392 ft | 228 kts | 152° |
| 2026-04-25 00:00 | -15.76949 | -48.23795 | 8269 ft | 225 kts | 152° |
| 2026-04-25 00:00 | -15.78348 | -48.23075 | 8151 ft | 225 kts | 153° |
| 2026-04-25 00:00 | -15.79827 | -48.22617 | 8005 ft | 227 kts | 173° |
| 2026-04-25 00:01 | -15.81412 | -48.22436 | 7900 ft | 231 kts | 172° |
| 2026-04-25 00:01 | -15.83013 | -48.22238 | 7756 ft | 231 kts | 172° |
| 2026-04-25 00:01 | -15.84555 | -48.21829 | 7561 ft | 229 kts | 147° |
| 2026-04-25 00:01 | -15.85631 | -48.20670 | 7447 ft | 223 kts | 120° |
| 2026-04-25 00:02 | -15.86340 | -48.19233 | 7274 ft | 223 kts | 114° |
| 2026-04-25 00:02 | -15.86972 | -48.17803 | 7151 ft | 212 kts | 114° |
| 2026-04-25 00:02 | -15.87553 | -48.16455 | 7040 ft | 197 kts | 108° |
| 2026-04-25 00:02 | -15.87691 | -48.15112 | 6914 ft | 181 kts | 89° |
| 2026-04-25 00:03 | -15.87675 | -48.13830 | 6844 ft | 177 kts | 88° |
| 2026-04-25 00:03 | -15.87624 | -48.12552 | 6738 ft | 178 kts | 87° |
| 2026-04-25 00:03 | -15.87552 | -48.11269 | 6629 ft | 178 kts | 87° |
| 2026-04-25 00:03 | -15.87472 | -48.09997 | 6589 ft | 176 kts | 86° |
| 2026-04-25 00:04 | -15.87392 | -48.08756 | 6388 ft | 166 kts | 86° |
| 2026-04-25 00:04 | -15.87317 | -48.07604 | 6165 ft | 154 kts | 86° |
| 2026-04-25 00:04 | -15.87246 | -48.06519 | 5999 ft | 153 kts | 87° |
| 2026-04-25 00:04 | -15.87174 | -48.05405 | 5814 ft | 157 kts | 86° |
| 2026-04-25 00:05 | -15.87100 | -48.04269 | 5613 ft | 154 kts | 87° |
| 2026-04-25 00:05 | -15.87029 | -48.03166 | 5417 ft | 152 kts | 86° |
| 2026-04-25 00:05 | -15.86958 | -48.02072 | 5233 ft | 151 kts | 86° |
| 2026-04-25 00:05 | -15.86888 | -48.00991 | 5048 ft | 150 kts | 86° |
| 2026-04-25 00:06 | -15.86819 | -47.99918 | 4849 ft | 150 kts | 87° |
| 2026-04-25 00:06 | -15.86749 | -47.98839 | 4650 ft | 150 kts | 86° |
| 2026-04-25 00:06 | -15.86679 | -47.97758 | 4475 ft | 152 kts | 86° |
| 2026-04-25 00:06 | -15.86608 | -47.96659 | 4272 ft | 153 kts | 86° |
| 2026-04-25 00:07 | -15.86537 | -47.95551 | 4072 ft | 155 kts | 88° |
| 2026-04-25 00:07 | -15.86463 | -47.94410 | 3840 ft | 157 kts | 88° |
| 2026-04-25 00:07 | -15.86392 | -47.93290 | 3627 ft | 159 kts | 88° |
| 2026-04-25 00:07 | -15.86321 | -47.92154 | 3466 ft | 152 kts | 88° |
| 2026-04-25 00:08 | -15.86274 | -47.91379 | 3469 ft | 56 kts | 97° |
| 2026-04-25 00:08 | -15.86379 | -47.91331 | 3470 ft | 15 kts | 221° |
| 2026-04-25 00:08 | -15.86451 | -47.91405 | 3471 ft | 15 kts | 238° |
| 2026-04-25 00:08 | -15.86478 | -47.91512 | 3469 ft | 17 kts | 268° |
| 2026-04-25 00:09 | -15.86496 | -47.91617 | 3468 ft | 12 kts | 227° |
| 2026-04-25 00:09 | -15.86563 | -47.91623 | 3468 ft | 11 kts | 179° |
| 2026-04-25 00:09 | -15.86644 | -47.91629 | 3467 ft | 13 kts | 206° |
| 2026-04-25 00:09 | -15.86715 | -47.91699 | 3465 ft | 15 kts | 221° |
| 2026-04-25 00:10 | -15.86818 | -47.91753 | 3463 ft | 18 kts | 198° |
| 2026-04-25 00:10 | -15.86896 | -47.91856 | 3461 ft | 20 kts | 242° |
| 2026-04-25 00:10 | -15.86917 | -47.91987 | 3461 ft | 8 kts | 262° |
| 2026-04-25 00:10 | -15.86917 | -47.91992 | 3461 ft | 0 kts | 263° |